»·PEaware :: QXE2674 KPSP-KLAX

QXE2674 :: KPSP-KLAX

FLIGHT INFORMATION

Flight Status: Arrived
Operator:
Horizon Air
More flights by this operator :: More flights under this callsign
Pilot: Walter H. (552)
Aircraft: DEHAVILLAND DASH 8 400
(DH8D)
More flights by this aircraft type
Origin: KPSP Palm Springs Intl
United States
Destination: KLAX Los Angeles Intl
United States
More flights between these airports :: More routes between these airports
Route: +CATH1 PSP V388 PDZ V16 LAHAB
File this flight plan on PilotEdge
Remarks: PSPN10A
Altitude:
(Current/Filed)
12,000ft
Speed:
(Current/Filed)
280kts
Departed: 23-Jan-16 04:24 PM
Arrived: 23-Jan-16 04:54 PM
Distance/Time
Traveled:
95nm/0:30
Distance/Time
To Go:
Arrived

Flight Plot

Page will automatically refresh every two minutes.


Map Options




Map Legend


Flown Route
Filed Route
Departure Airport
Arrival Airport
Navaid (VOR, NDB)
Fix

Horizontal Profiles

Position Reports

Time Latitude Longitude Heading Altitude Ground
Speed
23-Jan-16 15:51 33.821231 -116.507711 45 484ft 0kts
23-Jan-16 15:52 33.821231 -116.507711 45 484ft 0kts
23-Jan-16 15:53 33.821231 -116.507711 45 484ft 0kts
23-Jan-16 15:54 33.821231 -116.507711 45 484ft 0kts
23-Jan-16 15:55 33.821231 -116.507711 45 484ft 0kts
23-Jan-16 15:56 33.821231 -116.507711 45 484ft 0kts
23-Jan-16 15:57 33.821231 -116.507711 45 484ft 0kts
23-Jan-16 15:58 33.821231 -116.507711 45 484ft 0kts
23-Jan-16 15:59 33.821231 -116.507711 45 484ft 0kts
23-Jan-16 16:00 33.821231 -116.507711 45 484ft 0kts
23-Jan-16 16:01 33.821231 -116.507711 45 484ft 0kts
23-Jan-16 16:02 33.821231 -116.507711 45 484ft 0kts
23-Jan-16 16:03 33.821232 -116.507711 45 484ft 0kts
23-Jan-16 16:04 33.821232 -116.507711 45 484ft 0kts
23-Jan-16 16:05 33.821232 -116.507711 45 484ft 0kts
23-Jan-16 16:06 33.821232 -116.507711 45 484ft 0kts
23-Jan-16 16:07 33.821232 -116.507711 45 484ft 0kts
23-Jan-16 16:08 33.821232 -116.507711 45 484ft 0kts
23-Jan-16 16:09 33.821110 -116.507860 45 484ft 3kts
23-Jan-16 16:10 33.820919 -116.508096 45 484ft 0kts
23-Jan-16 16:11 33.820919 -116.508096 45 484ft 0kts
23-Jan-16 16:12 33.820919 -116.508096 45 484ft 0kts
23-Jan-16 16:13 33.820820 -116.507764 134 484ft 8kts
23-Jan-16 16:14 33.822376 -116.505385 48 484ft 9kts
23-Jan-16 16:15 33.820921 -116.501922 143 484ft 23kts
23-Jan-16 16:16 33.818530 -116.499153 91 484ft 0kts
23-Jan-16 16:17 33.818530 -116.499153 91 484ft 0kts
23-Jan-16 16:18 33.818529 -116.499137 91 484ft 2kts
23-Jan-16 16:19 33.832769 -116.510499 323 938ft 145kts
23-Jan-16 16:20 33.873911 -116.505636 57 3568ft 194kts
23-Jan-16 16:21 33.871893 -116.439915 103 6725ft 200kts
23-Jan-16 16:22 33.889978 -116.388957 348 9762ft 188kts
23-Jan-16 16:23 33.922619 -116.434557 292 12371ft 195kts
23-Jan-16 16:24 33.933357 -116.498940 267 14425ft 214kts
23-Jan-16 16:25 33.938107 -116.574235 268 16053ft 232kts
23-Jan-16 16:26 33.943410 -116.664914 270 14785ft 317kts
23-Jan-16 16:27 33.948229 -116.769258 265 12418ft 301kts
23-Jan-16 16:28 33.944436 -116.865036 264 12072ft 282kts
23-Jan-16 16:29 33.941112 -116.959410 264 12078ft 289kts
23-Jan-16 16:30 33.937581 -117.058172 265 11753ft 295kts
23-Jan-16 16:31 33.934129 -117.153521 265 11138ft 276kts
23-Jan-16 16:32 33.930310 -117.244362 265 10525ft 269kts
23-Jan-16 16:33 33.926344 -117.334137 265 10114ft 265kts
23-Jan-16 16:34 33.922788 -117.421014 265 10065ft 250kts
23-Jan-16 16:35 33.919523 -117.502191 265 9963ft 240kts
23-Jan-16 16:36 33.918651 -117.582974 270 8564ft 244kts
23-Jan-16 16:37 33.920833 -117.664641 270 7247ft 242kts
23-Jan-16 16:38 33.922379 -117.740787 270 7086ft 221kts
23-Jan-16 16:39 33.923727 -117.813922 270 7094ft 220kts
23-Jan-16 16:40 33.925018 -117.888217 270 6890ft 230kts
23-Jan-16 16:41 33.936466 -117.966187 293 5862ft 245kts
23-Jan-16 16:42 33.965267 -118.041047 292 5129ft 237kts
23-Jan-16 16:43 33.966929 -118.115326 260 4371ft 225kts
23-Jan-16 16:44 33.958615 -118.181391 261 3383ft 184kts
23-Jan-16 16:45 33.952183 -118.241068 262 2473ft 174kts
23-Jan-16 16:46 33.946660 -118.292276 262 1611ft 121kts
23-Jan-16 16:47 33.943079 -118.325933 262 1052ft 117kts
23-Jan-16 16:48 33.939081 -118.364906 263 470ft 110kts
23-Jan-16 16:49 33.935966 -118.395961 262 134ft 32kts
23-Jan-16 16:50 33.936588 -118.403146 284 133ft 0kts
23-Jan-16 16:51 33.936590 -118.403155 284 134ft 1kts
23-Jan-16 16:52 33.936661 -118.403420 288 133ft 0kts
23-Jan-16 16:53 33.938332 -118.404916 267 133ft 0kts
23-Jan-16 16:54 33.938412 -118.405169 312 134ft 11kts
23-Jan-16 16:55 33.941298 -118.405160 87 133ft 0kts
23-Jan-16 16:56 33.941298 -118.405160 87 133ft 0kts
23-Jan-16 16:57 33.941298 -118.405160 87 133ft 0kts
23-Jan-16 16:58 33.941298 -118.405160 87 133ft 0kts
23-Jan-16 16:59 33.941298 -118.405160 87 133ft 0kts
23-Jan-16 17:00 33.941298 -118.405160 87 133ft 0kts

Navigation Log

Ident Type
Flight plan parsing failed, navigation log unavailable